sensor_id;sensor_type;location;lat;lon;timestamp;pressure;altitude;pressure_sealevel;temperature;humidity
80502;BME280;76286;51.190;6.808;2024-03-17T00:04:01;102257.47;;;6.55;67.72
80502;BME280;76286;51.190;6.808;2024-03-17T00:09:02;102260.59;;;6.50;67.62
80502;BME280;76286;51.190;6.808;2024-03-17T00:14:06;102248.97;;;6.43;67.61
80502;BME280;76286;51.190;6.808;2024-03-17T00:19:07;102247.63;;;6.39;68.21
80502;BME280;76286;51.190;6.808;2024-03-17T00:24:14;102243.13;;;6.32;67.36
80502;BME280;76286;51.190;6.808;2024-03-17T00:29:19;102233.00;;;6.27;67.93
80502;BME280;76286;51.190;6.808;2024-03-17T00:34:26;102235.44;;;6.21;67.81
80502;BME280;76286;51.190;6.808;2024-03-17T00:39:30;102227.94;;;6.16;67.54
80502;BME280;76286;51.190;6.808;2024-03-17T00:44:35;102221.97;;;6.14;67.63
80502;BME280;76286;51.190;6.808;2024-03-17T00:49:36;102226.09;;;6.09;67.83
80502;BME280;76286;51.190;6.808;2024-03-17T00:54:40;102225.41;;;6.07;67.79
80502;BME280;76286;51.190;6.808;2024-03-17T00:59:47;102214.97;;;6.05;67.50
80502;BME280;76286;51.190;6.808;2024-03-17T01:04:51;102210.00;;;6.02;67.48
80502;BME280;76286;51.190;6.808;2024-03-17T01:09:52;102217.41;;;5.98;67.63
80502;BME280;76286;51.190;6.808;2024-03-17T01:14:59;102223.06;;;5.95;67.89
80502;BME280;76286;51.190;6.808;2024-03-17T01:20:02;102208.44;;;5.91;67.70
80502;BME280;76286;51.190;6.808;2024-03-17T01:25:04;102205.41;;;5.86;67.80
80502;BME280;76286;51.190;6.808;2024-03-17T01:30:07;102202.78;;;5.86;67.58
80502;BME280;76286;51.190;6.808;2024-03-17T01:35:14;102200.88;;;5.79;67.82
80502;BME280;76286;51.190;6.808;2024-03-17T01:40:16;102196.56;;;5.78;67.98
80502;BME280;76286;51.190;6.808;2024-03-17T01:50:24;102185.91;;;5.70;67.70
80502;BME280;76286;51.190;6.808;2024-03-17T01:55:42;102191.03;;;5.63;67.98
80502;BME280;76286;51.190;6.808;2024-03-17T02:00:50;102189.69;;;5.59;67.85
80502;BME280;76286;51.190;6.808;2024-03-17T02:05:52;102178.72;;;5.54;67.86
80502;BME280;76286;51.190;6.808;2024-03-17T02:10:59;102174.03;;;5.48;67.94
80502;BME280;76286;51.190;6.808;2024-03-17T02:16:20;102178.97;;;5.43;67.98
80502;BME280;76286;51.190;6.808;2024-03-17T02:21:27;102181.25;;;5.38;67.76
80502;BME280;76286;51.190;6.808;2024-03-17T02:26:44;102184.66;;;5.30;68.16
80502;BME280;76286;51.190;6.808;2024-03-17T02:31:45;102177.88;;;5.28;68.03
80502;BME280;76286;51.190;6.808;2024-03-17T02:36:49;102167.72;;;5.23;68.10
80502;BME280;76286;51.190;6.808;2024-03-17T02:41:56;102165.34;;;5.12;68.11
80502;BME280;76286;51.190;6.808;2024-03-17T02:47:02;102165.81;;;5.08;67.92
80502;BME280;76286;51.190;6.808;2024-03-17T02:52:10;102161.09;;;5.02;68.21
80502;BME280;76286;51.190;6.808;2024-03-17T02:57:19;102157.13;;;4.98;68.04
80502;BME280;76286;51.190;6.808;2024-03-17T03:02:31;102156.91;;;4.91;68.44
80502;BME280;76286;51.190;6.808;2024-03-17T03:07:37;102163.78;;;4.84;68.17
80502;BME280;76286;51.190;6.808;2024-03-17T03:12:41;102156.16;;;4.81;68.07
80502;BME280;76286;51.190;6.808;2024-03-17T03:17:43;102151.31;;;4.77;68.11
80502;BME280;76286;51.190;6.808;2024-03-17T03:22:44;102149.50;;;4.77;68.16
80502;BME280;76286;51.190;6.808;2024-03-17T03:27:50;102146.84;;;4.77;67.95
80502;BME280;76286;51.190;6.808;2024-03-17T03:32:51;102153.13;;;4.76;67.65
80502;BME280;76286;51.190;6.808;2024-03-17T03:37:53;102154.78;;;4.77;68.13
80502;BME280;76286;51.190;6.808;2024-03-17T03:42:57;102151.16;;;4.78;68.16
80502;BME280;76286;51.190;6.808;2024-03-17T03:48:01;102148.66;;;4.77;68.05
80502;BME280;76286;51.190;6.808;2024-03-17T03:53:03;102155.75;;;4.76;67.65
80502;BME280;76286;51.190;6.808;2024-03-17T03:58:06;102155.09;;;4.74;68.01
80502;BME280;76286;51.190;6.808;2024-03-17T04:03:08;102147.16;;;4.74;68.01
80502;BME280;76286;51.190;6.808;2024-03-17T04:08:09;102149.78;;;4.74;68.10
80502;BME280;76286;51.190;6.808;2024-03-17T04:13:18;102146.31;;;4.74;67.89
80502;BME280;76286;51.190;6.808;2024-03-17T04:18:27;102145.34;;;4.75;67.83
80502;BME280;76286;51.190;6.808;2024-03-17T04:23:33;102140.06;;;4.75;67.96
80502;BME280;76286;51.190;6.808;2024-03-17T04:28:37;102132.25;;;4.73;68.04
80502;BME280;76286;51.190;6.808;2024-03-17T04:33:41;102129.31;;;4.76;67.92
80502;BME280;76286;51.190;6.808;2024-03-17T04:38:44;102119.22;;;4.80;67.89
80502;BME280;76286;51.190;6.808;2024-03-17T04:43:45;102118.63;;;4.86;67.91
80502;BME280;76286;51.190;6.808;2024-03-17T04:49:06;102110.91;;;4.92;67.73
80502;BME280;76286;51.190;6.808;2024-03-17T04:54:13;102100.84;;;4.96;67.89
80502;BME280;76286;51.190;6.808;2024-03-17T04:59:14;102095.94;;;5.01;67.72
80502;BME280;76286;51.190;6.808;2024-03-17T05:04:24;102092.44;;;5.00;67.87
80502;BME280;76286;51.190;6.808;2024-03-17T05:09:25;102102.09;;;5.09;67.30
80502;BME280;76286;51.190;6.808;2024-03-17T05:14:29;102095.53;;;5.13;67.80
80502;BME280;76286;51.190;6.808;2024-03-17T05:19:33;102106.78;;;5.15;67.74
80502;BME280;76286;51.190;6.808;2024-03-17T05:24:34;102108.28;;;5.18;67.28
80502;BME280;76286;51.190;6.808;2024-03-17T05:29:37;102097.84;;;5.16;67.48
80502;BME280;76286;51.190;6.808;2024-03-17T05:34:39;102105.97;;;5.15;67.58
80502;BME280;76286;51.190;6.808;2024-03-17T05:39:40;102111.56;;;5.12;67.65
80502;BME280;76286;51.190;6.808;2024-03-17T05:44:43;102101.97;;;5.11;67.63
80502;BME280;76286;51.190;6.808;2024-03-17T05:49:53;102109.06;;;5.10;67.53
80502;BME280;76286;51.190;6.808;2024-03-17T05:54:57;102100.13;;;5.11;67.69
80502;BME280;76286;51.190;6.808;2024-03-17T05:59:58;102102.94;;;5.10;67.29
80502;BME280;76286;51.190;6.808;2024-03-17T06:05:05;102109.91;;;5.11;67.47
80502;BME280;76286;51.190;6.808;2024-03-17T06:10:20;102105.28;;;5.13;67.79
80502;BME280;76286;51.190;6.808;2024-03-17T06:15:30;102092.72;;;5.15;67.51
80502;BME280;76286;51.190;6.808;2024-03-17T06:20:41;102101.63;;;5.14;67.85
80502;BME280;76286;51.190;6.808;2024-03-17T06:25:47;102101.50;;;5.15;67.75
80502;BME280;76286;51.190;6.808;2024-03-17T06:30:58;102085.28;;;5.18;67.46
80502;BME280;76286;51.190;6.808;2024-03-17T06:36:07;102084.97;;;5.21;67.47
80502;BME280;76286;51.190;6.808;2024-03-17T06:41:15;102092.63;;;5.24;67.69
80502;BME280;76286;51.190;6.808;2024-03-17T06:46:16;102088.16;;;5.25;67.49
80502;BME280;76286;51.190;6.808;2024-03-17T06:51:22;102082.22;;;5.31;67.59
80502;BME280;76286;51.190;6.808;2024-03-17T06:56:29;102059.88;;;5.33;67.36
80502;BME280;76286;51.190;6.808;2024-03-17T07:01:45;102054.94;;;5.38;67.35
80502;BME280;76286;51.190;6.808;2024-03-17T07:06:59;102058.63;;;5.46;67.43
80502;BME280;76286;51.190;6.808;2024-03-17T07:12:11;102071.25;;;5.52;67.46
80502;BME280;76286;51.190;6.808;2024-03-17T07:17:18;102064.63;;;5.56;67.41
80502;BME280;76286;51.190;6.808;2024-03-17T07:22:26;102075.75;;;5.59;67.53
80502;BME280;76286;51.190;6.808;2024-03-17T07:27:29;102079.91;;;5.62;67.20
80502;BME280;76286;51.190;6.808;2024-03-17T07:32:31;102079.44;;;5.66;67.54
80502;BME280;76286;51.190;6.808;2024-03-17T07:37:35;102076.66;;;5.76;67.31
80502;BME280;76286;51.190;6.808;2024-03-17T07:42:39;102071.91;;;5.87;67.18
80502;BME280;76286;51.190;6.808;2024-03-17T07:47:45;102073.63;;;6.05;66.85
80502;BME280;76286;51.190;6.808;2024-03-17T07:52:54;102065.38;;;6.24;66.66
80502;BME280;76286;51.190;6.808;2024-03-17T07:58:06;102094.25;;;6.43;66.72
80502;BME280;76286;51.190;6.808;2024-03-17T08:03:18;102087.47;;;6.64;66.66
80502;BME280;76286;51.190;6.808;2024-03-17T08:08:25;102099.25;;;6.86;66.75
80502;BME280;76286;51.190;6.808;2024-03-17T08:13:30;102099.56;;;7.07;65.95
80502;BME280;76286;51.190;6.808;2024-03-17T08:18:35;102091.06;;;7.28;65.59
80502;BME280;76286;51.190;6.808;2024-03-17T08:23:40;102080.25;;;7.46;65.48
80502;BME280;76286;51.190;6.808;2024-03-17T08:28:50;102067.53;;;7.64;66.27
80502;BME280;76286;51.190;6.808;2024-03-17T08:33:53;102070.41;;;7.85;65.48
80502;BME280;76286;51.190;6.808;2024-03-17T08:39:00;102069.84;;;8.06;64.84
80502;BME280;76286;51.190;6.808;2024-03-17T08:44:02;102062.38;;;8.32;65.22
80502;BME280;76286;51.190;6.808;2024-03-17T08:49:20;102061.38;;;8.55;64.31
80502;BME280;76286;51.190;6.808;2024-03-17T08:54:24;102058.03;;;8.76;64.29
80502;BME280;76286;51.190;6.808;2024-03-17T08:59:39;102049.53;;;8.95;64.24
80502;BME280;76286;51.190;6.808;2024-03-17T09:04:46;102050.50;;;9.17;64.10
80502;BME280;76286;51.190;6.808;2024-03-17T09:09:53;102037.53;;;9.28;64.32
80502;BME280;76286;51.190;6.808;2024-03-17T09:14:54;102035.13;;;9.48;63.41
80502;BME280;76286;51.190;6.808;2024-03-17T09:20:18;102040.94;;;9.66;63.34
80502;BME280;76286;51.190;6.808;2024-03-17T09:25:22;102034.34;;;9.83;63.28
80502;BME280;76286;51.190;6.808;2024-03-17T09:30:23;102032.28;;;10.00;63.21
80502;BME280;76286;51.190;6.808;2024-03-17T09:35:36;102014.41;;;10.15;62.90
80502;BME280;76286;51.190;6.808;2024-03-17T09:40:38;102030.19;;;10.31;62.84
80502;BME280;76286;51.190;6.808;2024-03-17T09:46:01;102038.38;;;10.51;63.11
80502;BME280;76286;51.190;6.808;2024-03-17T09:51:05;102047.97;;;10.66;62.84
80502;BME280;76286;51.190;6.808;2024-03-17T10:07:00;102041.00;;;11.00;62.03
80502;BME280;76286;51.190;6.808;2024-03-17T10:12:02;102044.81;;;11.12;61.88
80502;BME280;76286;51.190;6.808;2024-03-17T10:17:32;102067.50;;;11.22;61.89
80502;BME280;76286;51.190;6.808;2024-03-17T10:28:43;102048.06;;;11.42;62.14
80502;BME280;76286;51.190;6.808;2024-03-17T10:34:05;102036.84;;;11.53;61.45
80502;BME280;76286;51.190;6.808;2024-03-17T10:44:41;102018.03;;;11.87;61.41
80502;BME280;76286;51.190;6.808;2024-03-17T10:49:45;102018.94;;;12.01;60.73
80502;BME280;76286;51.190;6.808;2024-03-17T10:55:26;102017.09;;;12.14;61.35
80502;BME280;76286;51.190;6.808;2024-03-17T11:00:29;102018.97;;;12.27;60.95
80502;BME280;76286;51.190;6.808;2024-03-17T11:05:44;102020.25;;;12.37;60.68
80502;BME280;76286;51.190;6.808;2024-03-17T11:11:34;102023.13;;;12.49;60.95
80502;BME280;76286;51.190;6.808;2024-03-17T11:17:16;102027.47;;;12.63;60.44
80502;BME280;76286;51.190;6.808;2024-03-17T11:28:44;102016.09;;;13.00;59.93
80502;BME280;76286;51.190;6.808;2024-03-17T11:33:54;102008.06;;;13.20;60.04
80502;BME280;76286;51.190;6.808;2024-03-17T11:39:19;102005.47;;;13.45;60.18
80502;BME280;76286;51.190;6.808;2024-03-17T11:44:42;102003.31;;;13.66;59.54
80502;BME280;76286;51.190;6.808;2024-03-17T11:55:37;101990.53;;;14.06;59.31
80502;BME280;76286;51.190;6.808;2024-03-17T12:01:28;101981.72;;;14.30;59.19
80502;BME280;76286;51.190;6.808;2024-03-17T12:06:44;101981.28;;;14.58;59.06
80502;BME280;76286;51.190;6.808;2024-03-17T12:12:08;101966.38;;;14.80;59.24
80502;BME280;76286;51.190;6.808;2024-03-17T12:17:23;101967.25;;;14.99;58.32
80502;BME280;76286;51.190;6.808;2024-03-17T12:22:27;101955.78;;;15.21;58.44
80502;BME280;76286;51.190;6.808;2024-03-17T12:27:33;101945.22;;;15.38;58.43
80502;BME280;76286;51.190;6.808;2024-03-17T12:32:39;101931.66;;;15.51;58.31
80502;BME280;76286;51.190;6.808;2024-03-17T12:37:44;101935.44;;;15.62;57.89
80502;BME280;76286;51.190;6.808;2024-03-17T12:43:00;101922.25;;;15.72;58.19
80502;BME280;76286;51.190;6.808;2024-03-17T12:48:20;101915.72;;;15.79;57.76
80502;BME280;76286;51.190;6.808;2024-03-17T12:53:46;101905.06;;;15.84;57.85
80502;BME280;76286;51.190;6.808;2024-03-17T12:58:52;101891.28;;;15.92;57.22
80502;BME280;76286;51.190;6.808;2024-03-17T13:04:14;101886.59;;;16.00;57.40
80502;BME280;76286;51.190;6.808;2024-03-17T13:09:18;101874.09;;;16.05;57.12
80502;BME280;76286;51.190;6.808;2024-03-17T13:14:29;101871.97;;;16.07;57.17
80502;BME280;76286;51.190;6.808;2024-03-17T13:19:40;101853.09;;;16.07;57.37
80502;BME280;76286;51.190;6.808;2024-03-17T13:36:08;101836.94;;;16.07;57.04
80502;BME280;76286;51.190;6.808;2024-03-17T13:41:37;101832.00;;;16.04;56.93
80502;BME280;76286;51.190;6.808;2024-03-17T13:47:00;101836.00;;;16.02;56.87
80502;BME280;76286;51.190;6.808;2024-03-17T13:52:01;101835.78;;;16.03;56.96
80502;BME280;76286;51.190;6.808;2024-03-17T13:57:08;101831.44;;;16.02;57.38
80502;BME280;76286;51.190;6.808;2024-03-17T14:02:18;101820.06;;;16.00;57.51
80502;BME280;76286;51.190;6.808;2024-03-17T14:07:35;101819.00;;;16.01;57.24
80502;BME280;76286;51.190;6.808;2024-03-17T14:13:05;101817.72;;;16.04;57.67
80502;BME280;76286;51.190;6.808;2024-03-17T14:18:40;101811.88;;;16.07;57.56
80502;BME280;76286;51.190;6.808;2024-03-17T14:23:52;101806.47;;;16.07;57.24
80502;BME280;76286;51.190;6.808;2024-03-17T14:29:19;101805.44;;;16.08;57.38
80502;BME280;76286;51.190;6.808;2024-03-17T14:34:23;101785.75;;;16.07;57.37
80502;BME280;76286;51.190;6.808;2024-03-17T14:39:26;101786.09;;;16.11;57.37
80502;BME280;76286;51.190;6.808;2024-03-17T14:44:39;101775.09;;;16.12;57.78
80502;BME280;76286;51.190;6.808;2024-03-17T14:50:04;101771.94;;;16.15;57.29
80502;BME280;76286;51.190;6.808;2024-03-17T14:55:06;101762.31;;;16.19;57.66
80502;BME280;76286;51.190;6.808;2024-03-17T15:00:17;101755.38;;;16.23;57.62
80502;BME280;76286;51.190;6.808;2024-03-17T15:05:37;101743.09;;;16.27;57.09
80502;BME280;76286;51.190;6.808;2024-03-17T15:10:42;101730.19;;;16.29;57.15
80502;BME280;76286;51.190;6.808;2024-03-17T15:15:54;101724.34;;;16.32;57.24
80502;BME280;76286;51.190;6.808;2024-03-17T15:21:06;101718.69;;;16.34;57.03
80502;BME280;76286;51.190;6.808;2024-03-17T15:26:40;101718.44;;;16.35;57.52
80502;BME280;76286;51.190;6.808;2024-03-17T15:31:46;101710.34;;;16.35;56.98
80502;BME280;76286;51.190;6.808;2024-03-17T15:36:55;101706.88;;;16.35;57.37
80502;BME280;76286;51.190;6.808;2024-03-17T15:41:59;101702.63;;;16.39;57.05
80502;BME280;76286;51.190;6.808;2024-03-17T15:47:24;101702.94;;;16.42;57.54
80502;BME280;76286;51.190;6.808;2024-03-17T15:52:55;101706.25;;;16.44;57.11
80502;BME280;76286;51.190;6.808;2024-03-17T15:58:00;101692.78;;;16.44;57.16
80502;BME280;76286;51.190;6.808;2024-03-17T16:03:16;101691.94;;;16.44;57.49
80502;BME280;76286;51.190;6.808;2024-03-17T16:08:37;101693.81;;;16.43;57.39
80502;BME280;76286;51.190;6.808;2024-03-17T16:13:53;101680.09;;;16.45;57.10
80502;BME280;76286;51.190;6.808;2024-03-17T16:19:01;101682.56;;;16.46;57.34
80502;BME280;76286;51.190;6.808;2024-03-17T16:24:14;101686.09;;;16.47;57.71
80502;BME280;76286;51.190;6.808;2024-03-17T16:29:18;101675.63;;;16.50;57.42
80502;BME280;76286;51.190;6.808;2024-03-17T16:34:26;101682.06;;;16.49;57.38
80502;BME280;76286;51.190;6.808;2024-03-17T16:39:56;101673.41;;;16.47;57.43
80502;BME280;76286;51.190;6.808;2024-03-17T16:45:04;101676.00;;;16.42;58.47
80502;BME280;76286;51.190;6.808;2024-03-17T16:50:21;101678.00;;;16.35;58.25
80502;BME280;76286;51.190;6.808;2024-03-17T16:55:29;101675.72;;;16.27;58.22
80502;BME280;76286;51.190;6.808;2024-03-17T17:00:37;101673.94;;;16.21;58.62
80502;BME280;76286;51.190;6.808;2024-03-17T17:05:56;101670.00;;;16.12;58.63
80502;BME280;76286;51.190;6.808;2024-03-17T17:11:00;101674.69;;;16.05;58.93
80502;BME280;76286;51.190;6.808;2024-03-17T17:16:27;101666.16;;;15.97;58.92
80502;BME280;76286;51.190;6.808;2024-03-17T17:21:39;101682.44;;;15.90;59.37
80502;BME280;76286;51.190;6.808;2024-03-17T17:26:50;101679.78;;;15.78;59.62
80502;BME280;76286;51.190;6.808;2024-03-17T17:32:00;101676.13;;;15.73;59.44
80502;BME280;76286;51.190;6.808;2024-03-17T17:37:18;101672.16;;;15.64;59.41
80502;BME280;76286;51.190;6.808;2024-03-17T17:42:22;101666.91;;;15.57;59.02
80502;BME280;76286;51.190;6.808;2024-03-17T17:47:31;101673.91;;;15.47;59.19
80502;BME280;76286;51.190;6.808;2024-03-17T17:52:52;101663.44;;;15.39;59.37
80502;BME280;76286;51.190;6.808;2024-03-17T17:57:57;101668.72;;;15.34;59.34
80502;BME280;76286;51.190;6.808;2024-03-17T18:03:11;101669.88;;;15.26;59.72
80502;BME280;76286;51.190;6.808;2024-03-17T18:08:12;101666.72;;;15.17;59.91
80502;BME280;76286;51.190;6.808;2024-03-17T18:13:22;101674.66;;;15.12;59.82
80502;BME280;76286;51.190;6.808;2024-03-17T18:18:28;101670.22;;;15.06;60.45
80502;BME280;76286;51.190;6.808;2024-03-17T18:23:37;101661.19;;;15.01;60.46
80502;BME280;76286;51.190;6.808;2024-03-17T18:28:45;101648.88;;;14.93;60.35
80502;BME280;76286;51.190;6.808;2024-03-17T18:34:08;101654.25;;;14.93;60.71
80502;BME280;76286;51.190;6.808;2024-03-17T18:39:10;101663.03;;;14.89;60.32
80502;BME280;76286;51.190;6.808;2024-03-17T18:44:47;101657.97;;;14.81;60.87
80502;BME280;76286;51.190;6.808;2024-03-17T18:50:06;101657.00;;;14.75;60.63
80502;BME280;76286;51.190;6.808;2024-03-17T18:55:30;101654.56;;;14.74;60.75
80502;BME280;76286;51.190;6.808;2024-03-17T19:00:33;101650.91;;;14.68;60.80
80502;BME280;76286;51.190;6.808;2024-03-17T19:05:47;101645.88;;;14.60;60.88
80502;BME280;76286;51.190;6.808;2024-03-17T19:11:13;101640.66;;;14.47;60.78
80502;BME280;76286;51.190;6.808;2024-03-17T19:16:34;101645.22;;;14.28;61.52
80502;BME280;76286;51.190;6.808;2024-03-17T19:21:36;101654.84;;;14.18;61.74
80502;BME280;76286;51.190;6.808;2024-03-17T19:26:50;101644.41;;;14.10;61.52
80502;BME280;76286;51.190;6.808;2024-03-17T19:32:05;101655.69;;;14.00;61.82
80502;BME280;76286;51.190;6.808;2024-03-17T19:37:21;101661.13;;;13.93;61.68
80502;BME280;76286;51.190;6.808;2024-03-17T19:48:09;101644.22;;;13.75;62.06
80502;BME280;76286;51.190;6.808;2024-03-17T19:53:20;101635.16;;;13.69;61.94
80502;BME280;76286;51.190;6.808;2024-03-17T19:58:33;101641.66;;;13.62;62.23
80502;BME280;76286;51.190;6.808;2024-03-17T20:03:55;101652.44;;;13.55;62.47
80502;BME280;76286;51.190;6.808;2024-03-17T20:09:10;101650.63;;;13.49;62.76
80502;BME280;76286;51.190;6.808;2024-03-17T20:14:14;101641.41;;;13.45;62.82
80502;BME280;76286;51.190;6.808;2024-03-17T20:19:33;101634.00;;;13.41;62.75
80502;BME280;76286;51.190;6.808;2024-03-17T20:25:00;101634.88;;;13.35;62.68
80502;BME280;76286;51.190;6.808;2024-03-17T20:30:05;101631.84;;;13.31;62.66
80502;BME280;76286;51.190;6.808;2024-03-17T20:35:09;101621.97;;;13.25;62.35
80502;BME280;76286;51.190;6.808;2024-03-17T20:40:15;101622.88;;;13.19;63.10
80502;BME280;76286;51.190;6.808;2024-03-17T20:45:18;101624.94;;;13.17;62.61
80502;BME280;76286;51.190;6.808;2024-03-17T20:50:38;101631.16;;;13.11;62.74
80502;BME280;76286;51.190;6.808;2024-03-17T20:55:50;101637.38;;;13.05;62.52
80502;BME280;76286;51.190;6.808;2024-03-17T21:06:11;101631.25;;;12.98;62.95
80502;BME280;76286;51.190;6.808;2024-03-17T21:11:28;101629.59;;;12.97;63.02
80502;BME280;76286;51.190;6.808;2024-03-17T21:16:36;101620.19;;;12.88;63.27
80502;BME280;76286;51.190;6.808;2024-03-17T21:21:48;101617.72;;;12.86;63.83
80502;BME280;76286;51.190;6.808;2024-03-17T21:26:54;101610.34;;;12.82;63.67
80502;BME280;76286;51.190;6.808;2024-03-17T21:32:07;101605.63;;;12.77;63.54
80502;BME280;76286;51.190;6.808;2024-03-17T21:37:45;101592.88;;;12.73;63.91
80502;BME280;76286;51.190;6.808;2024-03-17T21:42:44;101596.22;;;12.68;64.21
80502;BME280;76286;51.190;6.808;2024-03-17T21:47:58;101579.75;;;12.64;64.17
80502;BME280;76286;51.190;6.808;2024-03-17T21:53:14;101589.47;;;12.59;64.44
80502;BME280;76286;51.190;6.808;2024-03-17T21:58:19;101591.34;;;12.58;64.40
80502;BME280;76286;51.190;6.808;2024-03-17T22:03:30;101587.28;;;12.49;64.64
80502;BME280;76286;51.190;6.808;2024-03-17T22:08:34;101577.59;;;12.48;64.75
80502;BME280;76286;51.190;6.808;2024-03-17T22:13:38;101572.47;;;12.47;63.75
80502;BME280;76286;51.190;6.808;2024-03-17T22:18:49;101574.13;;;12.41;64.26
80502;BME280;76286;51.190;6.808;2024-03-17T22:24:00;101572.94;;;12.37;64.45
80502;BME280;76286;51.190;6.808;2024-03-17T22:29:26;101571.50;;;12.35;64.85
80502;BME280;76286;51.190;6.808;2024-03-17T22:34:33;101568.22;;;12.33;64.30
80502;BME280;76286;51.190;6.808;2024-03-17T22:39:55;101563.50;;;12.28;64.63
80502;BME280;76286;51.190;6.808;2024-03-17T22:45:11;101564.75;;;12.26;64.36
80502;BME280;76286;51.190;6.808;2024-03-17T22:50:21;101564.38;;;12.22;64.19
80502;BME280;76286;51.190;6.808;2024-03-17T22:55:27;101567.66;;;12.24;65.08
80502;BME280;76286;51.190;6.808;2024-03-17T23:00:32;101568.88;;;12.22;64.70
80502;BME280;76286;51.190;6.808;2024-03-17T23:05:55;101568.06;;;12.21;64.13
80502;BME280;76286;51.190;6.808;2024-03-17T23:10:59;101561.72;;;12.16;64.88
80502;BME280;76286;51.190;6.808;2024-03-17T23:16:07;101559.25;;;12.14;65.58
80502;BME280;76286;51.190;6.808;2024-03-17T23:21:22;101555.56;;;12.09;65.10
80502;BME280;76286;51.190;6.808;2024-03-17T23:26:32;101559.06;;;12.09;65.39
80502;BME280;76286;51.190;6.808;2024-03-17T23:31:52;101549.41;;;12.08;64.55
80502;BME280;76286;51.190;6.808;2024-03-17T23:37:23;101546.72;;;12.08;65.11
80502;BME280;76286;51.190;6.808;2024-03-17T23:42:47;101531.50;;;12.02;65.90
80502;BME280;76286;51.190;6.808;2024-03-17T23:48:02;101542.44;;;12.01;65.36
80502;BME280;76286;51.190;6.808;2024-03-17T23:53:18;101526.19;;;11.95;65.71
80502;BME280;76286;51.190;6.808;2024-03-17T23:58:31;101523.13;;;11.92;66.01
